sensor_id;sensor_type;location;lat;lon;timestamp;temperature;humidity
55329;DHT22;41205;44.264;19.884;2022-11-20T00:00:50;256.70;2252.80
55329;DHT22;41205;44.264;19.884;2022-11-20T00:03:16;256.50;2252.80
55329;DHT22;41205;44.264;19.884;2022-11-20T00:05:42;256.80;2252.80
55329;DHT22;41205;44.264;19.884;2022-11-20T00:08:08;256.70;2252.80
55329;DHT22;41205;44.264;19.884;2022-11-20T00:10:39;256.80;2252.80
55329;DHT22;41205;44.264;19.884;2022-11-20T00:13:06;256.80;2252.80
55329;DHT22;41205;44.264;19.884;2022-11-20T00:15:31;256.90;2252.80
55329;DHT22;41205;44.264;19.884;2022-11-20T00:17:57;256.60;2252.80
55329;DHT22;41205;44.264;19.884;2022-11-20T00:20:23;256.70;2252.80
55329;DHT22;41205;44.264;19.884;2022-11-20T00:22:49;256.80;2252.80
55329;DHT22;41205;44.264;19.884;2022-11-20T00:25:16;256.80;2252.80
55329;DHT22;41205;44.264;19.884;2022-11-20T00:27:41;256.80;2252.80
55329;DHT22;41205;44.264;19.884;2022-11-20T00:30:07;256.90;2252.80
55329;DHT22;41205;44.264;19.884;2022-11-20T00:32:33;256.90;2252.80
55329;DHT22;41205;44.264;19.884;2022-11-20T00:34:59;256.90;2252.80
55329;DHT22;41205;44.264;19.884;2022-11-20T00:37:25;256.80;2252.80
55329;DHT22;41205;44.264;19.884;2022-11-20T00:39:51;256.90;2252.80
55329;DHT22;41205;44.264;19.884;2022-11-20T00:42:17;256.80;2252.80
55329;DHT22;41205;44.264;19.884;2022-11-20T00:44:42;256.90;1996.80
55329;DHT22;41205;44.264;19.884;2022-11-20T00:47:08;256.90;2252.80
55329;DHT22;41205;44.264;19.884;2022-11-20T00:49:34;256.90;2252.80
55329;DHT22;41205;44.264;19.884;2022-11-20T00:51:59;281.60;1996.80
55329;DHT22;41205;44.264;19.884;2022-11-20T00:54:25;281.70;2278.40
55329;DHT22;41205;44.264;19.884;2022-11-20T00:56:53;281.70;2278.40
55329;DHT22;41205;44.264;19.884;2022-11-20T00:59:19;281.70;2278.40
55329;DHT22;41205;44.264;19.884;2022-11-20T01:01:44;281.70;2278.40
55329;DHT22;41205;44.264;19.884;2022-11-20T01:04:10;281.90;2278.40
55329;DHT22;41205;44.264;19.884;2022-11-20T01:06:37;281.90;2278.40
55329;DHT22;41205;44.264;19.884;2022-11-20T01:09:06;281.90;2278.40
55329;DHT22;41205;44.264;19.884;2022-11-20T01:11:34;282.00;2278.40
55329;DHT22;41205;44.264;19.884;2022-11-20T01:14:02;282.00;2278.40
55329;DHT22;41205;44.264;19.884;2022-11-20T01:16:33;282.00;2278.40
55329;DHT22;41205;44.264;19.884;2022-11-20T01:19:02;282.10;2278.40
55329;DHT22;41205;44.264;19.884;2022-11-20T01:21:39;282.10;2278.40
55329;DHT22;41205;44.264;19.884;2022-11-20T01:24:07;282.00;2278.40
55329;DHT22;41205;44.264;19.884;2022-11-20T01:26:35;282.10;2278.40
55329;DHT22;41205;44.264;19.884;2022-11-20T01:29:02;282.00;2278.40
55329;DHT22;41205;44.264;19.884;2022-11-20T01:31:36;282.10;2278.40
55329;DHT22;41205;44.264;19.884;2022-11-20T01:34:09;282.10;2278.40
55329;DHT22;41205;44.264;19.884;2022-11-20T01:36:36;282.10;2278.40
55329;DHT22;41205;44.264;19.884;2022-11-20T01:39:05;282.10;2278.40
55329;DHT22;41205;44.264;19.884;2022-11-20T01:41:32;282.10;2278.40
55329;DHT22;41205;44.264;19.884;2022-11-20T01:44:20;282.20;2278.40
55329;DHT22;41205;44.264;19.884;2022-11-20T01:46:59;282.20;2278.40
55329;DHT22;41205;44.264;19.884;2022-11-20T01:49:47;282.10;2278.40
55329;DHT22;41205;44.264;19.884;2022-11-20T01:52:26;281.80;2278.40
55329;DHT22;41205;44.264;19.884;2022-11-20T01:54:59;281.60;2124.80
55329;DHT22;41205;44.264;19.884;2022-11-20T01:57:28;256.90;2252.80
55329;DHT22;41205;44.264;19.884;2022-11-20T02:00:02;281.70;2278.40
55329;DHT22;41205;44.264;19.884;2022-11-20T02:02:28;281.80;2278.40
55329;DHT22;41205;44.264;19.884;2022-11-20T02:04:56;282.00;2278.40
55329;DHT22;41205;44.264;19.884;2022-11-20T02:07:26;281.90;2278.40
55329;DHT22;41205;44.264;19.884;2022-11-20T02:09:53;281.90;2278.40
55329;DHT22;41205;44.264;19.884;2022-11-20T02:12:19;281.90;2278.40
55329;DHT22;41205;44.264;19.884;2022-11-20T02:15:03;282.00;2278.40
55329;DHT22;41205;44.264;19.884;2022-11-20T02:17:29;281.80;2278.40
55329;DHT22;41205;44.264;19.884;2022-11-20T02:19:55;281.90;2278.40
55329;DHT22;41205;44.264;19.884;2022-11-20T02:22:28;282.00;2278.40
55329;DHT22;41205;44.264;19.884;2022-11-20T02:24:57;282.00;2278.40
55329;DHT22;41205;44.264;19.884;2022-11-20T02:27:24;282.10;2278.40
55329;DHT22;41205;44.264;19.884;2022-11-20T02:29:53;282.20;2278.40
55329;DHT22;41205;44.264;19.884;2022-11-20T02:32:25;282.20;2278.40
55329;DHT22;41205;44.264;19.884;2022-11-20T02:34:51;282.20;2278.40
55329;DHT22;41205;44.264;19.884;2022-11-20T02:37:17;282.10;2278.40
55329;DHT22;41205;44.264;19.884;2022-11-20T02:39:45;282.10;2278.40
55329;DHT22;41205;44.264;19.884;2022-11-20T02:42:11;282.10;2278.40
55329;DHT22;41205;44.264;19.884;2022-11-20T02:44:37;282.10;2278.40
55329;DHT22;41205;44.264;19.884;2022-11-20T02:47:03;282.10;2278.40
55329;DHT22;41205;44.264;19.884;2022-11-20T02:49:29;282.10;2278.40
55329;DHT22;41205;44.264;19.884;2022-11-20T02:51:54;281.80;2278.40
55329;DHT22;41205;44.264;19.884;2022-11-20T02:54:20;281.60;2278.40
55329;DHT22;41205;44.264;19.884;2022-11-20T02:56:46;281.90;2278.40
55329;DHT22;41205;44.264;19.884;2022-11-20T02:59:11;281.90;2278.40
55329;DHT22;41205;44.264;19.884;2022-11-20T03:01:37;281.90;2278.40
55329;DHT22;41205;44.264;19.884;2022-11-20T03:04:03;282.10;2278.40
55329;DHT22;41205;44.264;19.884;2022-11-20T03:06:28;282.10;2278.40
55329;DHT22;41205;44.264;19.884;2022-11-20T03:08:54;282.10;2278.40
55329;DHT22;41205;44.264;19.884;2022-11-20T03:11:20;282.10;2278.40
55329;DHT22;41205;44.264;19.884;2022-11-20T03:13:46;282.10;2278.40
55329;DHT22;41205;44.264;19.884;2022-11-20T03:16:14;282.20;2278.40
55329;DHT22;41205;44.264;19.884;2022-11-20T03:18:41;282.10;2278.40
55329;DHT22;41205;44.264;19.884;2022-11-20T03:21:08;282.10;2278.40
55329;DHT22;41205;44.264;19.884;2022-11-20T03:23:35;282.00;2278.40
55329;DHT22;41205;44.264;19.884;2022-11-20T03:26:16;282.00;2278.40
55329;DHT22;41205;44.264;19.884;2022-11-20T03:28:54;281.90;2278.40
55329;DHT22;41205;44.264;19.884;2022-11-20T03:31:23;281.90;2278.40
55329;DHT22;41205;44.264;19.884;2022-11-20T03:33:49;281.90;2278.40
55329;DHT22;41205;44.264;19.884;2022-11-20T03:36:17;281.90;2278.40
55329;DHT22;41205;44.264;19.884;2022-11-20T03:38:43;281.80;2278.40
55329;DHT22;41205;44.264;19.884;2022-11-20T03:41:11;281.80;2278.40
55329;DHT22;41205;44.264;19.884;2022-11-20T03:43:38;281.80;2278.40
55329;DHT22;41205;44.264;19.884;2022-11-20T03:46:04;281.80;2278.40
55329;DHT22;41205;44.264;19.884;2022-11-20T03:48:31;281.80;2278.40
55329;DHT22;41205;44.264;19.884;2022-11-20T03:51:11;282.00;2278.40
55329;DHT22;41205;44.264;19.884;2022-11-20T03:53:37;281.90;2278.40
55329;DHT22;41205;44.264;19.884;2022-11-20T03:56:04;281.70;2278.40
55329;DHT22;41205;44.264;19.884;2022-11-20T03:58:30;281.70;2278.40
55329;DHT22;41205;44.264;19.884;2022-11-20T04:00:55;281.80;2278.40
55329;DHT22;41205;44.264;19.884;2022-11-20T04:03:21;281.90;2278.40
55329;DHT22;41205;44.264;19.884;2022-11-20T04:05:47;281.80;2278.40
55329;DHT22;41205;44.264;19.884;2022-11-20T04:08:12;281.80;2278.40
55329;DHT22;41205;44.264;19.884;2022-11-20T04:10:38;281.70;2278.40
55329;DHT22;41205;44.264;19.884;2022-11-20T04:13:03;281.70;2278.40
55329;DHT22;41205;44.264;19.884;2022-11-20T04:15:29;281.70;2278.40
55329;DHT22;41205;44.264;19.884;2022-11-20T04:17:55;281.70;2278.40
55329;DHT22;41205;44.264;19.884;2022-11-20T04:20:21;256.90;2176.00
55329;DHT22;41205;44.264;19.884;2022-11-20T04:22:47;281.60;2150.40
55329;DHT22;41205;44.264;19.884;2022-11-20T04:25:12;281.90;2278.40
55329;DHT22;41205;44.264;19.884;2022-11-20T04:27:38;281.80;2278.40
55329;DHT22;41205;44.264;19.884;2022-11-20T04:30:04;281.70;2278.40
55329;DHT22;41205;44.264;19.884;2022-11-20T04:32:30;281.70;2278.40
55329;DHT22;41205;44.264;19.884;2022-11-20T04:34:55;281.90;2278.40
55329;DHT22;41205;44.264;19.884;2022-11-20T04:37:21;281.80;2278.40
55329;DHT22;41205;44.264;19.884;2022-11-20T04:39:47;281.90;2278.40
55329;DHT22;41205;44.264;19.884;2022-11-20T04:42:12;281.90;2278.40
55329;DHT22;41205;44.264;19.884;2022-11-20T04:44:56;281.90;2278.40
55329;DHT22;41205;44.264;19.884;2022-11-20T04:47:22;282.00;2278.40
55329;DHT22;41205;44.264;19.884;2022-11-20T04:49:48;282.00;2278.40
55329;DHT22;41205;44.264;19.884;2022-11-20T04:52:14;282.00;2278.40
55329;DHT22;41205;44.264;19.884;2022-11-20T04:54:39;282.00;2278.40
55329;DHT22;41205;44.264;19.884;2022-11-20T04:57:06;282.00;2278.40
55329;DHT22;41205;44.264;19.884;2022-11-20T04:59:31;282.00;2278.40
55329;DHT22;41205;44.264;19.884;2022-11-20T05:01:57;282.00;2278.40
55329;DHT22;41205;44.264;19.884;2022-11-20T05:04:23;282.00;2278.40
55329;DHT22;41205;44.264;19.884;2022-11-20T05:06:49;281.90;2278.40
55329;DHT22;41205;44.264;19.884;2022-11-20T05:09:15;281.80;2278.40
55329;DHT22;41205;44.264;19.884;2022-11-20T05:11:41;281.80;2278.40
55329;DHT22;41205;44.264;19.884;2022-11-20T05:14:07;281.80;2278.40
55329;DHT22;41205;44.264;19.884;2022-11-20T05:16:34;281.80;2278.40
55329;DHT22;41205;44.264;19.884;2022-11-20T05:19:00;281.80;2278.40
55329;DHT22;41205;44.264;19.884;2022-11-20T05:21:26;281.70;2278.40
55329;DHT22;41205;44.264;19.884;2022-11-20T05:23:53;281.60;2278.40
55329;DHT22;41205;44.264;19.884;2022-11-20T05:26:20;281.60;2278.40
55329;DHT22;41205;44.264;19.884;2022-11-20T05:28:50;281.60;2278.40
55329;DHT22;41205;44.264;19.884;2022-11-20T05:31:21;281.70;2278.40
55329;DHT22;41205;44.264;19.884;2022-11-20T05:33:47;281.80;2278.40
55329;DHT22;41205;44.264;19.884;2022-11-20T05:36:14;256.90;2252.80
55329;DHT22;41205;44.264;19.884;2022-11-20T05:38:40;256.70;2252.80
55329;DHT22;41205;44.264;19.884;2022-11-20T05:41:15;256.80;2252.80
55329;DHT22;41205;44.264;19.884;2022-11-20T05:43:42;256.70;2252.80
55329;DHT22;41205;44.264;19.884;2022-11-20T05:46:11;256.80;2252.80
55329;DHT22;41205;44.264;19.884;2022-11-20T05:48:37;256.70;2252.80
55329;DHT22;41205;44.264;19.884;2022-11-20T05:51:05;256.80;2252.80
55329;DHT22;41205;44.264;19.884;2022-11-20T05:53:32;256.70;2252.80
55329;DHT22;41205;44.264;19.884;2022-11-20T05:56:07;256.60;2252.80
55329;DHT22;41205;44.264;19.884;2022-11-20T05:58:34;256.60;2252.80
55329;DHT22;41205;44.264;19.884;2022-11-20T06:03:29;256.50;2252.80
55329;DHT22;41205;44.264;19.884;2022-11-20T06:05:55;256.30;2252.80
55329;DHT22;41205;44.264;19.884;2022-11-20T06:08:20;256.40;2252.80
55329;DHT22;41205;44.264;19.884;2022-11-20T06:10:46;256.50;2252.80
55329;DHT22;41205;44.264;19.884;2022-11-20T06:13:12;256.70;2252.80
55329;DHT22;41205;44.264;19.884;2022-11-20T06:15:37;256.70;2252.80
55329;DHT22;41205;44.264;19.884;2022-11-20T06:18:03;256.50;2252.80
55329;DHT22;41205;44.264;19.884;2022-11-20T06:20:29;256.50;2252.80
55329;DHT22;41205;44.264;19.884;2022-11-20T06:22:54;256.40;2252.80
55329;DHT22;41205;44.264;19.884;2022-11-20T06:25:20;256.40;2252.80
55329;DHT22;41205;44.264;19.884;2022-11-20T06:27:46;256.50;2252.80
55329;DHT22;41205;44.264;19.884;2022-11-20T06:30:12;256.40;2252.80
55329;DHT22;41205;44.264;19.884;2022-11-20T06:32:38;256.60;2252.80
55329;DHT22;41205;44.264;19.884;2022-11-20T06:35:04;256.60;2252.80
55329;DHT22;41205;44.264;19.884;2022-11-20T06:37:29;256.70;2252.80
55329;DHT22;41205;44.264;19.884;2022-11-20T06:39:55;256.70;2252.80
55329;DHT22;41205;44.264;19.884;2022-11-20T06:42:21;256.50;2252.80
55329;DHT22;41205;44.264;19.884;2022-11-20T06:44:46;256.60;2252.80
55329;DHT22;41205;44.264;19.884;2022-11-20T06:47:12;256.60;2252.80
55329;DHT22;41205;44.264;19.884;2022-11-20T06:49:38;256.50;2252.80
55329;DHT22;41205;44.264;19.884;2022-11-20T06:52:04;256.40;2252.80
55329;DHT22;41205;44.264;19.884;2022-11-20T06:54:30;256.40;2252.80
55329;DHT22;41205;44.264;19.884;2022-11-20T06:56:56;256.40;2252.80
55329;DHT22;41205;44.264;19.884;2022-11-20T06:59:22;256.50;2252.80
55329;DHT22;41205;44.264;19.884;2022-11-20T07:01:48;256.50;2252.80
55329;DHT22;41205;44.264;19.884;2022-11-20T07:04:13;256.60;2252.80
55329;DHT22;41205;44.264;19.884;2022-11-20T07:06:39;256.50;2252.80
55329;DHT22;41205;44.264;19.884;2022-11-20T07:09:04;256.60;2252.80
55329;DHT22;41205;44.264;19.884;2022-11-20T07:11:30;256.80;2252.80
55329;DHT22;41205;44.264;19.884;2022-11-20T07:13:57;256.60;2252.80
55329;DHT22;41205;44.264;19.884;2022-11-20T07:16:22;256.60;2252.80
55329;DHT22;41205;44.264;19.884;2022-11-20T07:18:48;256.80;2252.80
55329;DHT22;41205;44.264;19.884;2022-11-20T07:21:14;256.60;2252.80
55329;DHT22;41205;44.264;19.884;2022-11-20T07:23:40;256.70;2252.80
55329;DHT22;41205;44.264;19.884;2022-11-20T07:26:10;256.80;2252.80
55329;DHT22;41205;44.264;19.884;2022-11-20T07:28:36;281.60;2278.40
55329;DHT22;41205;44.264;19.884;2022-11-20T07:31:03;281.60;2278.40
55329;DHT22;41205;44.264;19.884;2022-11-20T07:33:29;256.90;2252.80
55329;DHT22;41205;44.264;19.884;2022-11-20T07:35:55;256.80;2252.80
55329;DHT22;41205;44.264;19.884;2022-11-20T07:38:23;256.90;2252.80
55329;DHT22;41205;44.264;19.884;2022-11-20T07:40:53;256.90;2252.80
55329;DHT22;41205;44.264;19.884;2022-11-20T07:43:19;256.80;2252.80
55329;DHT22;41205;44.264;19.884;2022-11-20T07:45:45;256.90;2252.80
55329;DHT22;41205;44.264;19.884;2022-11-20T07:48:10;256.90;2252.80
55329;DHT22;41205;44.264;19.884;2022-11-20T07:50:36;281.60;2278.40
55329;DHT22;41205;44.264;19.884;2022-11-20T07:53:05;256.80;2252.80
55329;DHT22;41205;44.264;19.884;2022-11-20T07:55:31;256.80;2252.80
55329;DHT22;41205;44.264;19.884;2022-11-20T07:57:58;256.70;2252.80
55329;DHT22;41205;44.264;19.884;2022-11-20T08:00:25;256.90;2252.80
55329;DHT22;41205;44.264;19.884;2022-11-20T08:02:51;256.90;2252.80
55329;DHT22;41205;44.264;19.884;2022-11-20T08:05:17;281.60;2278.40
55329;DHT22;41205;44.264;19.884;2022-11-20T08:07:43;281.60;2278.40
55329;DHT22;41205;44.264;19.884;2022-11-20T08:10:11;281.60;2278.40
55329;DHT22;41205;44.264;19.884;2022-11-20T08:12:45;281.60;2278.40
55329;DHT22;41205;44.264;19.884;2022-11-20T08:15:29;256.80;2252.80
55329;DHT22;41205;44.264;19.884;2022-11-20T08:20:27;256.80;2252.80
55329;DHT22;41205;44.264;19.884;2022-11-20T08:22:58;256.80;2252.80
55329;DHT22;41205;44.264;19.884;2022-11-20T08:25:25;281.60;2278.40
55329;DHT22;41205;44.264;19.884;2022-11-20T08:27:51;281.60;2278.40
55329;DHT22;41205;44.264;19.884;2022-11-20T08:30:16;256.80;2252.80
55329;DHT22;41205;44.264;19.884;2022-11-20T08:32:42;256.80;2252.80
55329;DHT22;41205;44.264;19.884;2022-11-20T08:35:08;256.80;2252.80
55329;DHT22;41205;44.264;19.884;2022-11-20T08:37:34;281.60;2278.40
55329;DHT22;41205;44.264;19.884;2022-11-20T08:40:00;281.60;2278.40
55329;DHT22;41205;44.264;19.884;2022-11-20T08:42:25;256.80;2252.80
55329;DHT22;41205;44.264;19.884;2022-11-20T08:44:51;256.70;2252.80
55329;DHT22;41205;44.264;19.884;2022-11-20T08:47:17;256.90;2252.80
55329;DHT22;41205;44.264;19.884;2022-11-20T08:49:42;256.90;2252.80
55329;DHT22;41205;44.264;19.884;2022-11-20T08:52:08;281.60;2278.40
55329;DHT22;41205;44.264;19.884;2022-11-20T08:54:34;281.60;2278.40
55329;DHT22;41205;44.264;19.884;2022-11-20T08:56:59;256.80;2252.80
55329;DHT22;41205;44.264;19.884;2022-11-20T08:59:25;256.70;2252.80
55329;DHT22;41205;44.264;19.884;2022-11-20T09:01:51;256.80;2252.80
55329;DHT22;41205;44.264;19.884;2022-11-20T09:04:16;256.90;2252.80
55329;DHT22;41205;44.264;19.884;2022-11-20T09:06:42;281.60;2278.40
55329;DHT22;41205;44.264;19.884;2022-11-20T09:09:08;281.60;2278.40
55329;DHT22;41205;44.264;19.884;2022-11-20T09:11:34;281.70;2278.40
55329;DHT22;41205;44.264;19.884;2022-11-20T09:14:00;281.60;2278.40
55329;DHT22;41205;44.264;19.884;2022-11-20T09:16:28;281.60;2278.40
55329;DHT22;41205;44.264;19.884;2022-11-20T09:18:53;256.90;2252.80
55329;DHT22;41205;44.264;19.884;2022-11-20T09:21:19;256.90;2252.80
55329;DHT22;41205;44.264;19.884;2022-11-20T09:23:45;281.60;2278.40
55329;DHT22;41205;44.264;19.884;2022-11-20T09:26:12;256.80;2252.80
55329;DHT22;41205;44.264;19.884;2022-11-20T09:28:38;281.60;2278.40
55329;DHT22;41205;44.264;19.884;2022-11-20T09:31:36;281.60;2278.40
55329;DHT22;41205;44.264;19.884;2022-11-20T09:34:02;281.70;2278.40
55329;DHT22;41205;44.264;19.884;2022-11-20T09:36:28;256.70;2252.80
55329;DHT22;41205;44.264;19.884;2022-11-20T09:38:54;256.50;2252.80
55329;DHT22;41205;44.264;19.884;2022-11-20T09:41:42;256.70;2252.80
55329;DHT22;41205;44.264;19.884;2022-11-20T09:55:24;281.60;2278.40
55329;DHT22;41205;44.264;19.884;2022-11-20T09:57:51;281.60;2278.40
55329;DHT22;41205;44.264;19.884;2022-11-20T10:00:18;281.80;2278.40
55329;DHT22;41205;44.264;19.884;2022-11-20T10:03:13;281.70;2278.40
55329;DHT22;41205;44.264;19.884;2022-11-20T10:05:48;281.80;2278.40
55329;DHT22;41205;44.264;19.884;2022-11-20T10:08:45;281.90;2278.40
55329;DHT22;41205;44.264;19.884;2022-11-20T10:11:20;281.70;2278.40
55329;DHT22;41205;44.264;19.884;2022-11-20T10:19:54;281.80;2278.40
55329;DHT22;41205;44.264;19.884;2022-11-20T10:22:46;281.80;2278.40
55329;DHT22;41205;44.264;19.884;2022-11-20T10:25:16;281.60;2278.40
55329;DHT22;41205;44.264;19.884;2022-11-20T10:30:41;256.90;2252.80
55329;DHT22;41205;44.264;19.884;2022-11-20T10:33:22;256.70;2252.80
55329;DHT22;41205;44.264;19.884;2022-11-20T10:38:26;256.50;2252.80
55329;DHT22;41205;44.264;19.884;2022-11-20T10:40:59;256.80;2252.80
55329;DHT22;41205;44.264;19.884;2022-11-20T10:43:45;256.90;2252.80
55329;DHT22;41205;44.264;19.884;2022-11-20T10:46:18;256.70;2252.80
55329;DHT22;41205;44.264;19.884;2022-11-20T10:48:46;256.60;2252.80
55329;DHT22;41205;44.264;19.884;2022-11-20T10:51:15;256.90;2252.80
55329;DHT22;41205;44.264;19.884;2022-11-20T10:53:54;256.70;2252.80
55329;DHT22;41205;44.264;19.884;2022-11-20T11:07:50;256.70;2252.80
55329;DHT22;41205;44.264;19.884;2022-11-20T11:10:24;256.50;2252.80
55329;DHT22;41205;44.264;19.884;2022-11-20T11:12:51;256.50;2252.80
55329;DHT22;41205;44.264;19.884;2022-11-20T11:18:02;256.70;2252.80
55329;DHT22;41205;44.264;19.884;2022-11-20T11:20:28;256.70;2252.80
55329;DHT22;41205;44.264;19.884;2022-11-20T11:22:56;256.70;2252.80
55329;DHT22;41205;44.264;19.884;2022-11-20T11:25:35;256.90;2252.80
55329;DHT22;41205;44.264;19.884;2022-11-20T11:28:17;256.80;2252.80
55329;DHT22;41205;44.264;19.884;2022-11-20T11:30:45;281.60;2278.40
55329;DHT22;41205;44.264;19.884;2022-11-20T11:33:19;256.80;2252.80
55329;DHT22;41205;44.264;19.884;2022-11-20T11:35:47;256.90;2252.80
55329;DHT22;41205;44.264;19.884;2022-11-20T11:38:17;256.80;2252.80
55329;DHT22;41205;44.264;19.884;2022-11-20T11:40:45;256.90;2252.80
55329;DHT22;41205;44.264;19.884;2022-11-20T11:43:22;256.80;2252.80
55329;DHT22;41205;44.264;19.884;2022-11-20T11:46:30;256.90;2252.80
55329;DHT22;41205;44.264;19.884;2022-11-20T11:51:49;256.60;2252.80
55329;DHT22;41205;44.264;19.884;2022-11-20T11:54:21;256.70;2252.80
55329;DHT22;41205;44.264;19.884;2022-11-20T11:56:49;256.60;2252.80
55329;DHT22;41205;44.264;19.884;2022-11-20T11:59:25;256.40;2252.80
55329;DHT22;41205;44.264;19.884;2022-11-20T12:02:01;256.50;2252.80
55329;DHT22;41205;44.264;19.884;2022-11-20T12:04:53;256.30;2252.80
55329;DHT22;41205;44.264;19.884;2022-11-20T12:07:47;256.20;2252.80
55329;DHT22;41205;44.264;19.884;2022-11-20T12:10:21;256.20;2252.80
55329;DHT22;41205;44.264;19.884;2022-11-20T12:12:59;256.00;2252.80
55329;DHT22;41205;44.264;19.884;2022-11-20T12:15:30;256.00;2252.80
55329;DHT22;41205;44.264;19.884;2022-11-20T12:17:56;256.10;2252.80
55329;DHT22;41205;44.264;19.884;2022-11-20T12:20:35;256.40;2252.80
55329;DHT22;41205;44.264;19.884;2022-11-20T12:25:59;256.10;2252.80
55329;DHT22;41205;44.264;19.884;2022-11-20T12:39:42;256.20;2252.80
55329;DHT22;41205;44.264;19.884;2022-11-20T12:45:12;256.00;2252.80
55329;DHT22;41205;44.264;19.884;2022-11-20T12:47:59;231.20;2252.80
55329;DHT22;41205;44.264;19.884;2022-11-20T12:58:39;231.30;2252.80
55329;DHT22;41205;44.264;19.884;2022-11-20T13:01:24;256.00;2252.80
55329;DHT22;41205;44.264;19.884;2022-11-20T13:04:24;231.20;2252.80
55329;DHT22;41205;44.264;19.884;2022-11-20T13:06:56;231.30;2252.80
55329;DHT22;41205;44.264;19.884;2022-11-20T13:09:23;231.30;2252.80
55329;DHT22;41205;44.264;19.884;2022-11-20T13:17:59;231.30;2252.80
55329;DHT22;41205;44.264;19.884;2022-11-20T13:20:25;231.30;2252.80
55329;DHT22;41205;44.264;19.884;2022-11-20T13:22:56;256.00;2252.80
55329;DHT22;41205;44.264;19.884;2022-11-20T13:26:04;231.20;2252.80
55329;DHT22;41205;44.264;19.884;2022-11-20T13:28:31;231.20;2252.80
55329;DHT22;41205;44.264;19.884;2022-11-20T13:30:58;231.30;2252.80
55329;DHT22;41205;44.264;19.884;2022-11-20T13:33:39;231.30;2252.80
55329;DHT22;41205;44.264;19.884;2022-11-20T13:36:19;231.30;2252.80
55329;DHT22;41205;44.264;19.884;2022-11-20T13:38:50;256.00;2252.80
55329;DHT22;41205;44.264;19.884;2022-11-20T13:41:29;231.30;2252.80
55329;DHT22;41205;44.264;19.884;2022-11-20T13:44:20;231.10;2252.80
55329;DHT22;41205;44.264;19.884;2022-11-20T13:46:48;231.30;2252.80
55329;DHT22;41205;44.264;19.884;2022-11-20T13:49:37;231.30;2252.80
55329;DHT22;41205;44.264;19.884;2022-11-20T13:52:35;231.30;2252.80
55329;DHT22;41205;44.264;19.884;2022-11-20T14:01:06;231.20;2252.80
55329;DHT22;41205;44.264;19.884;2022-11-20T14:03:34;231.00;2252.80
55329;DHT22;41205;44.264;19.884;2022-11-20T14:06:16;230.80;2252.80
55329;DHT22;41205;44.264;19.884;2022-11-20T14:08:49;230.90;2252.80
55329;DHT22;41205;44.264;19.884;2022-11-20T14:14:14;231.00;2252.80
55329;DHT22;41205;44.264;19.884;2022-11-20T14:16:40;230.90;2252.80
55329;DHT22;41205;44.264;19.884;2022-11-20T14:21:48;231.00;2252.80
55329;DHT22;41205;44.264;19.884;2022-11-20T14:24:19;231.10;2252.80
55329;DHT22;41205;44.264;19.884;2022-11-20T14:26:46;231.00;2252.80
55329;DHT22;41205;44.264;19.884;2022-11-20T14:29:18;231.10;2252.80
55329;DHT22;41205;44.264;19.884;2022-11-20T14:31:45;231.00;2252.80
55329;DHT22;41205;44.264;19.884;2022-11-20T14:34:17;230.90;2252.80
55329;DHT22;41205;44.264;19.884;2022-11-20T14:36:44;230.90;2252.80
55329;DHT22;41205;44.264;19.884;2022-11-20T14:39:28;231.00;2252.80
55329;DHT22;41205;44.264;19.884;2022-11-20T14:41:55;231.00;2252.80
55329;DHT22;41205;44.264;19.884;2022-11-20T14:44:31;230.70;2252.80
55329;DHT22;41205;44.264;19.884;2022-11-20T14:46:59;230.70;2252.80
55329;DHT22;41205;44.264;19.884;2022-11-20T14:49:26;230.70;2252.80
55329;DHT22;41205;44.264;19.884;2022-11-20T14:52:02;230.60;2252.80
55329;DHT22;41205;44.264;19.884;2022-11-20T14:54:28;230.50;2252.80
55329;DHT22;41205;44.264;19.884;2022-11-20T14:57:03;230.50;2252.80
55329;DHT22;41205;44.264;19.884;2022-11-20T14:59:31;230.40;2252.80
55329;DHT22;41205;44.264;19.884;2022-11-20T15:02:06;230.50;2252.80
55329;DHT22;41205;44.264;19.884;2022-11-20T15:04:34;230.50;2252.80
55329;DHT22;41205;44.264;19.884;2022-11-20T15:07:09;230.50;2252.80
55329;DHT22;41205;44.264;19.884;2022-11-20T15:09:35;230.60;2252.80
55329;DHT22;41205;44.264;19.884;2022-11-20T15:12:03;230.60;2252.80
55329;DHT22;41205;44.264;19.884;2022-11-20T15:14:30;230.60;2252.80
55329;DHT22;41205;44.264;19.884;2022-11-20T15:16:59;230.40;2252.80
55329;DHT22;41205;44.264;19.884;2022-11-20T15:19:25;230.40;2252.80
55329;DHT22;41205;44.264;19.884;2022-11-20T15:21:52;230.40;2252.80
55329;DHT22;41205;44.264;19.884;2022-11-20T15:24:18;230.40;2252.80
55329;DHT22;41205;44.264;19.884;2022-11-20T15:26:44;205.70;2252.80
55329;DHT22;41205;44.264;19.884;2022-11-20T15:29:15;230.40;2252.80
55329;DHT22;41205;44.264;19.884;2022-11-20T15:31:44;230.50;2252.80
55329;DHT22;41205;44.264;19.884;2022-11-20T15:34:14;230.40;2252.80
55329;DHT22;41205;44.264;19.884;2022-11-20T15:36:41;230.40;2252.80
55329;DHT22;41205;44.264;19.884;2022-11-20T15:39:08;230.40;2252.80
55329;DHT22;41205;44.264;19.884;2022-11-20T15:41:34;230.50;2252.80
55329;DHT22;41205;44.264;19.884;2022-11-20T15:44:00;230.40;2252.80
55329;DHT22;41205;44.264;19.884;2022-11-20T15:46:28;205.70;2252.80
55329;DHT22;41205;44.264;19.884;2022-11-20T15:48:55;230.60;2252.80
55329;DHT22;41205;44.264;19.884;2022-11-20T15:51:27;230.50;2252.80
55329;DHT22;41205;44.264;19.884;2022-11-20T15:53:55;230.50;2252.80
55329;DHT22;41205;44.264;19.884;2022-11-20T15:56:21;205.70;2252.80
55329;DHT22;41205;44.264;19.884;2022-11-20T15:58:46;205.50;2252.80
55329;DHT22;41205;44.264;19.884;2022-11-20T16:01:15;205.20;2252.80
55329;DHT22;41205;44.264;19.884;2022-11-20T16:03:41;205.10;2252.80
55329;DHT22;41205;44.264;19.884;2022-11-20T16:06:07;205.30;2252.80
55329;DHT22;41205;44.264;19.884;2022-11-20T16:08:33;205.20;2252.80
55329;DHT22;41205;44.264;19.884;2022-11-20T16:10:58;205.20;2252.80
55329;DHT22;41205;44.264;19.884;2022-11-20T16:13:24;205.30;2252.80
55329;DHT22;41205;44.264;19.884;2022-11-20T16:16:18;205.40;2252.80